Time;durP1;ratioP1;P1;durP2;ratioP2;P2;SDS_P1;SDS_P2;PMS_P1;PMS_P2;Temp;Humidity;BMP_temperature;BMP_pressure;BME280_temperature;BME280_humidity;BME280_pressure;Samples;Min_cycle;Max_cycle;Signal;HPM_P1;HPM_P2
2023/04/26 00:00:00;;;;;;;10.10;5.90;;;;;;;6.07;83.56;96005.95;109061;1274;24307;-82
2023/04/26 00:02:33;;;;;;;10.20;6.30;;;;;;;6.07;83.40;96006.68;109082;1274;22524;-82
2023/04/26 00:05:04;;;;;;;12.20;6.30;;;;;;;6.07;83.77;96009.15;109210;1274;22585;-82
2023/04/26 00:07:36;;;;;;;9.80;5.80;;;;;;;6.07;83.70;96011.84;109058;1272;23870;-82
2023/04/26 00:10:09;;;;;;;10.70;5.80;;;;;;;6.03;83.44;96011.08;109072;1272;22464;-82
2023/04/26 00:12:41;;;;;;;10.90;6.50;;;;;;;6.01;83.45;96012.87;109039;1267;22770;-82
2023/04/26 00:15:12;;;;;;;8.30;5.80;;;;;;;6.00;83.61;96012.77;109092;1274;22544;-83
2023/04/26 00:17:43;;;;;;;9.20;5.60;;;;;;;6.03;83.66;96019.34;109025;1274;23172;-82
2023/04/26 00:20:14;;;;;;;10.40;6.30;;;;;;;6.02;83.28;96017.34;109027;1253;22523;-82
2023/04/26 00:22:45;;;;;;;11.10;6.20;;;;;;;5.99;83.22;96017.19;109106;1267;22519;-82
2023/04/26 00:25:16;;;;;;;11.10;6.10;;;;;;;6.00;83.27;96019.83;109078;1274;22516;-82
2023/04/26 00:27:47;;;;;;;12.10;6.40;;;;;;;6.01;83.31;96011.45;109053;1272;25409;-82
2023/04/26 00:30:18;;;;;;;13.80;6.50;;;;;;;5.98;83.27;96012.45;109062;1275;23245;-82
2023/04/26 00:32:49;;;;;;;10.70;5.50;;;;;;;5.96;83.11;96007.52;109026;1267;24260;-82
2023/04/26 00:35:20;;;;;;;9.80;5.70;;;;;;;5.93;83.08;96013.95;109057;1271;22521;-82
2023/04/26 00:37:51;;;;;;;11.80;6.60;;;;;;;5.93;83.28;96015.21;109063;1273;22518;-82
2023/04/26 00:40:22;;;;;;;11.60;6.90;;;;;;;5.93;83.17;96017.58;109109;1267;22521;-82
2023/04/26 00:42:59;;;;;;;14.80;6.20;;;;;;;5.92;83.38;96022.78;109152;1273;22514;-82
2023/04/26 00:45:30;;;;;;;10.10;6.80;;;;;;;5.88;83.20;96023.52;109106;1273;22581;-82
2023/04/26 00:48:03;;;;;;;12.90;6.40;;;;;;;5.89;83.27;96025.48;109060;1275;23361;-82
2023/04/26 00:50:34;;;;;;;8.80;5.40;;;;;;;5.89;83.41;96025.77;109063;1275;22643;-82
2023/04/26 00:53:06;;;;;;;13.50;6.50;;;;;;;5.87;83.48;96026.73;109038;1275;22599;-82
2023/04/26 00:55:37;;;;;;;12.70;6.00;;;;;;;5.85;83.11;96030.15;109068;1251;25584;-82
2023/04/26 00:58:08;;;;;;;9.80;5.10;;;;;;;5.82;83.33;96024.79;109068;1273;22986;-82
2023/04/26 01:00:40;;;;;;;9.10;5.30;;;;;;;5.77;83.23;96034.46;109145;1267;23770;-83
2023/04/26 01:03:11;;;;;;;9.50;5.50;;;;;;;5.76;83.33;96030.35;109129;1273;22518;-83
2023/04/26 01:05:43;;;;;;;10.90;5.90;;;;;;;5.76;83.04;96027.49;109107;1270;24120;-83
2023/04/26 01:08:16;;;;;;;11.20;6.00;;;;;;;5.73;82.94;96030.82;109025;1272;22550;-83
2023/04/26 01:10:47;;;;;;;11.80;6.00;;;;;;;5.71;82.76;96030.82;109017;1274;25406;-83
2023/04/26 01:13:19;;;;;;;10.60;5.60;;;;;;;5.71;82.63;96031.23;109056;1274;22465;-83
2023/04/26 01:15:50;;;;;;;10.30;5.50;;;;;;;5.69;82.38;96030.88;109059;1274;22557;-83
2023/04/26 01:18:21;;;;;;;9.70;5.60;;;;;;;5.68;82.15;96041.13;109097;1267;24246;-83
2023/04/26 01:20:52;;;;;;;8.00;4.60;;;;;;;5.66;81.65;96039.08;109107;1273;22515;-83
2023/04/26 01:23:23;;;;;;;10.10;4.80;;;;;;;5.63;81.11;96041.48;109074;1267;22799;-83
2023/04/26 01:25:55;;;;;;;12.80;5.70;;;;;;;5.62;81.01;96040.37;109122;1267;22596;-83
2023/04/26 01:28:26;;;;;;;9.70;4.70;;;;;;;5.62;81.01;96042.84;109062;1273;22553;-83
2023/04/26 01:30:57;;;;;;;10.70;4.70;;;;;;;5.61;80.57;96044.62;109079;1274;24574;-83
2023/04/26 01:33:28;;;;;;;10.10;4.40;;;;;;;5.62;80.15;96046.09;109026;1274;23777;-83
2023/04/26 01:35:59;;;;;;;11.60;3.30;;;;;;;5.62;79.75;96045.14;109025;1267;22515;-83
2023/04/26 01:38:30;;;;;;;9.30;3.40;;;;;;;5.58;78.43;96041.52;109012;1274;22655;-84
2023/04/26 01:41:01;;;;;;;8.90;4.20;;;;;;;5.56;77.55;96046.52;109018;1273;22517;-83
2023/04/26 01:43:32;;;;;;;6.20;2.90;;;;;;;5.56;77.83;96049.20;109068;1275;22578;-83
2023/04/26 01:46:03;;;;;;;9.30;3.70;;;;;;;5.54;76.52;96053.14;109047;1275;23275;-83
2023/04/26 01:48:33;;;;;;;9.10;3.60;;;;;;;5.52;76.27;96058.61;109035;1275;25193;-84
2023/04/26 01:51:05;;;;;;;10.60;5.00;;;;;;;5.52;76.56;96053.77;109057;1267;22591;-83
2023/04/26 01:53:35;;;;;;;8.20;3.60;;;;;;;5.52;75.93;96058.98;109051;1275;22769;-83
2023/04/26 01:56:07;;;;;;;11.20;3.40;;;;;;;5.50;75.19;96055.19;109058;1274;24187;-83
2023/04/26 01:58:38;;;;;;;8.70;3.50;;;;;;;5.49;75.56;96061.48;109037;1273;22534;-84
2023/04/26 02:01:10;;;;;;;7.20;3.50;;;;;;;5.48;74.67;96069.10;109059;1267;22513;-83
2023/04/26 02:03:40;;;;;;;8.00;3.80;;;;;;;5.43;74.62;96053.99;109071;1267;22571;-83
2023/04/26 02:06:11;;;;;;;6.50;3.40;;;;;;;5.37;73.96;96064.40;109076;1274;22543;-83
2023/04/26 02:08:42;;;;;;;9.40;3.80;;;;;;;5.31;74.42;96064.16;109037;1275;24210;-84
2023/04/26 02:11:13;;;;;;;10.90;3.50;;;;;;;5.28;74.54;96071.88;109086;1275;22547;-83
2023/04/26 02:13:44;;;;;;;9.50;3.50;;;;;;;5.23;74.32;96070.45;109079;1274;22534;-84
2023/04/26 02:16:15;;;;;;;10.00;3.90;;;;;;;5.20;74.52;96072.57;109038;1274;25290;-83
2023/04/26 02:18:48;;;;;;;6.50;3.20;;;;;;;5.16;74.68;96074.72;108978;1274;22550;-83
2023/04/26 02:21:20;;;;;;;9.30;3.70;;;;;;;5.09;74.21;96072.23;109074;1260;25244;-83
2023/04/26 02:23:51;;;;;;;11.80;3.60;;;;;;;5.04;74.45;96074.87;109055;1274;22519;-83
2023/04/26 02:26:22;;;;;;;10.10;4.10;;;;;;;5.00;75.03;96074.02;109085;1274;22511;-83
2023/04/26 02:28:53;;;;;;;9.30;3.30;;;;;;;4.95;75.02;96082.73;109102;1273;22533;-83
2023/04/26 02:31:24;;;;;;;10.20;4.50;;;;;;;4.91;75.16;96079.10;109106;1273;22518;-83
2023/04/26 02:33:55;;;;;;;10.60;4.20;;;;;;;4.90;75.22;96081.63;109068;1267;22518;-83
2023/04/26 02:36:26;;;;;;;12.00;5.30;;;;;;;4.93;75.12;96079.60;109119;1270;22494;-83
2023/04/26 02:38:57;;;;;;;10.00;4.00;;;;;;;4.93;75.45;96077.56;109115;1267;22515;-83
2023/04/26 02:41:27;;;;;;;9.20;3.80;;;;;;;4.96;75.50;96076.27;109130;1267;22666;-83
2023/04/26 02:43:59;;;;;;;9.90;4.40;;;;;;;4.97;75.80;96067.48;109079;1270;22534;-83
2023/04/26 02:46:29;;;;;;;8.60;3.80;;;;;;;4.99;75.89;96068.80;109059;1273;22520;-83
2023/04/26 02:49:00;;;;;;;8.60;4.80;;;;;;;4.99;76.33;96073.13;109064;1273;22468;-83
2023/04/26 02:51:31;;;;;;;10.80;4.70;;;;;;;4.96;76.54;96073.64;109042;1274;22518;-83
2023/04/26 02:54:03;;;;;;;8.70;4.30;;;;;;;4.97;76.74;96074.59;109063;1270;22523;-83
2023/04/26 02:56:34;;;;;;;11.20;5.10;;;;;;;4.99;77.30;96073.06;108997;1274;24675;-83
2023/04/26 02:59:05;;;;;;;8.50;5.10;;;;;;;5.00;77.31;96078.32;109068;1267;22670;-83
2023/04/26 03:01:37;;;;;;;13.60;5.70;;;;;;;5.02;77.47;96076.65;109082;1274;22524;-83
2023/04/26 03:04:08;;;;;;;10.10;5.10;;;;;;;5.01;77.54;96080.27;109036;1270;22515;-83
2023/04/26 03:06:39;;;;;;;10.70;4.30;;;;;;;4.97;77.78;96088.14;109054;1273;22539;-83
2023/04/26 03:09:10;;;;;;;9.20;4.40;;;;;;;4.93;77.73;96087.89;109078;1274;23796;-83
2023/04/26 03:11:42;;;;;;;14.50;5.60;;;;;;;4.89;78.09;96092.23;109037;1274;22593;-83
2023/04/26 03:14:13;;;;;;;8.70;4.80;;;;;;;4.81;77.88;96084.95;109061;1274;22531;-83
2023/04/26 03:16:44;;;;;;;9.40;4.30;;;;;;;4.72;77.99;96095.23;109035;1267;22572;-83
2023/04/26 03:19:15;;;;;;;10.20;4.50;;;;;;;4.65;77.94;96106.59;109053;1274;22570;-83
2023/04/26 03:21:46;;;;;;;11.00;4.60;;;;;;;4.60;77.61;96096.41;109038;1268;25456;-82
2023/04/26 03:24:17;;;;;;;9.70;4.60;;;;;;;4.60;77.51;96104.55;109063;1269;22543;-82
2023/04/26 03:26:48;;;;;;;10.90;4.60;;;;;;;4.60;77.12;96113.06;109105;1273;24329;-83
2023/04/26 03:29:19;;;;;;;12.80;5.30;;;;;;;4.60;77.20;96110.85;109139;1273;22707;-82
2023/04/26 03:31:50;;;;;;;9.10;4.80;;;;;;;4.62;77.19;96114.23;109140;1273;23677;-82
2023/04/26 03:34:21;;;;;;;12.50;4.70;;;;;;;4.62;77.12;96117.95;109117;1273;22461;-83
2023/04/26 03:36:52;;;;;;;9.00;4.20;;;;;;;4.60;76.96;96119.46;109066;1270;22522;-83
2023/04/26 03:39:23;;;;;;;11.20;4.40;;;;;;;4.55;76.77;96119.23;109083;1272;22812;-83
2023/04/26 03:41:54;;;;;;;6.50;4.10;;;;;;;4.50;76.91;96121.25;109087;1274;22533;-83
2023/04/26 03:44:25;;;;;;;14.20;4.90;;;;;;;4.47;76.82;96120.47;109040;1270;22533;-83
2023/04/26 03:46:56;;;;;;;8.10;4.00;;;;;;;4.43;76.82;96130.21;109134;1273;23175;-83
2023/04/26 03:49:28;;;;;;;10.50;4.50;;;;;;;4.39;76.94;96131.50;109077;1260;22507;-82
2023/04/26 03:51:59;;;;;;;11.70;4.30;;;;;;;4.33;76.96;96135.42;109104;1273;22536;-83
2023/04/26 03:54:30;;;;;;;9.70;4.00;;;;;;;4.29;77.04;96133.82;109146;1273;25243;-83
2023/04/26 03:57:01;;;;;;;8.70;6.00;;;;;;;4.27;77.06;96139.15;109039;1273;22895;-83
2023/04/26 03:59:32;;;;;;;7.80;4.00;;;;;;;4.31;77.21;96136.04;109066;1267;22519;-83
2023/04/26 04:02:03;;;;;;;10.50;3.40;;;;;;;4.31;76.93;96139.98;109048;1274;22572;-83
2023/04/26 04:04:36;;;;;;;11.00;4.10;;;;;;;4.28;76.85;96143.10;109065;1274;22532;-84
2023/04/26 04:07:07;;;;;;;9.00;4.60;;;;;;;4.30;77.11;96148.31;109071;1274;23625;-82
2023/04/26 04:09:38;;;;;;;10.90;4.60;;;;;;;4.35;77.04;96144.89;109073;1274;22579;-82
2023/04/26 04:12:09;;;;;;;11.10;4.90;;;;;;;4.42;76.69;96140.60;109071;1270;22585;-83
2023/04/26 04:14:39;;;;;;;8.00;3.30;;;;;;;4.43;76.63;96149.84;109071;1268;22514;-82
2023/04/26 04:17:11;;;;;;;9.70;5.50;;;;;;;4.43;76.63;96154.88;109114;1273;28693;-82
2023/04/26 04:19:41;;;;;;;11.40;5.00;;;;;;;4.49;76.49;96153.77;109121;1270;24912;-83
2023/04/26 04:22:13;;;;;;;10.60;4.10;;;;;;;4.59;76.22;96158.95;109118;1273;22514;-82
2023/04/26 04:24:43;;;;;;;11.50;4.50;;;;;;;4.64;75.77;96158.55;109112;1267;22544;-83
2023/04/26 04:27:15;;;;;;;9.50;4.40;;;;;;;4.66;75.80;96163.83;109044;1273;28572;-83
2023/04/26 04:29:46;;;;;;;11.20;4.50;;;;;;;4.79;75.74;96168.69;109050;1274;22568;-82
2023/04/26 04:32:17;;;;;;;8.70;3.90;;;;;;;5.30;75.52;96171.17;109069;1274;22523;-82
2023/04/26 04:34:49;;;;;;;12.20;3.90;;;;;;;5.96;73.54;96172.03;109046;1274;22576;-83
2023/04/26 04:37:20;;;;;;;10.10;4.10;;;;;;;6.52;71.92;96180.41;109034;1274;22521;-83
2023/04/26 04:39:51;;;;;;;9.10;3.00;;;;;;;7.10;70.71;96177.12;109056;1271;22521;-83
2023/04/26 04:42:22;;;;;;;9.10;3.50;;;;;;;7.21;67.05;96182.38;109121;1269;23097;-83
2023/04/26 04:44:53;;;;;;;7.90;3.50;;;;;;;7.20;65.26;96177.42;109056;1259;22551;-82
2023/04/26 04:47:24;;;;;;;7.60;3.10;;;;;;;7.10;64.59;96183.45;109059;1273;22986;-83
2023/04/26 04:49:55;;;;;;;8.10;3.80;;;;;;;7.04;63.98;96186.41;109063;1274;23029;-82
2023/04/26 04:52:26;;;;;;;11.00;3.60;;;;;;;7.16;63.33;96187.30;109017;1274;22530;-83
2023/04/26 04:54:58;;;;;;;10.00;4.20;;;;;;;6.88;62.61;96185.68;109060;1273;22548;-83
2023/04/26 04:57:29;;;;;;;8.00;3.80;;;;;;;6.99;63.51;96189.89;109052;1274;22578;-83
2023/04/26 05:00:07;;;;;;;7.50;3.40;;;;;;;7.55;63.16;96189.41;109037;1268;22462;-82
2023/04/26 05:02:38;;;;;;;8.30;4.20;;;;;;;8.49;61.35;96190.13;109065;1274;23082;-83
2023/04/26 05:05:10;;;;;;;6.90;3.80;;;;;;;8.92;60.70;96199.16;109048;1269;23183;-83
2023/04/26 05:07:41;;;;;;;9.90;4.10;;;;;;;9.81;61.64;96199.82;109084;1273;22543;-83
2023/04/26 05:10:14;;;;;;;8.50;3.30;;;;;;;10.15;58.25;96190.82;109119;1267;22530;-83
2023/04/26 05:12:45;;;;;;;6.10;3.40;;;;;;;9.77;56.62;96205.52;109165;1273;25439;-83
2023/04/26 05:15:16;;;;;;;8.10;3.70;;;;;;;9.95;57.11;96200.40;109078;1273;22492;-83
2023/04/26 05:17:47;;;;;;;6.80;3.40;;;;;;;9.92;56.85;96211.34;109087;1273;22681;-83
2023/04/26 05:20:19;;;;;;;6.80;3.60;;;;;;;9.36;56.08;96213.52;109134;1266;22637;-83
2023/04/26 05:22:50;;;;;;;8.50;3.70;;;;;;;9.38;56.19;96219.54;109164;1273;22646;-83
2023/04/26 05:25:21;;;;;;;8.20;3.40;;;;;;;10.05;54.36;96212.02;109085;1273;24463;-83
2023/04/26 05:27:52;;;;;;;11.70;4.60;;;;;;;9.74;53.60;96219.54;109051;1273;22556;-83
2023/04/26 05:30:24;;;;;;;8.50;3.30;;;;;;;9.32;54.75;96228.50;109056;1268;22728;-83
2023/04/26 05:32:55;;;;;;;10.90;3.90;;;;;;;10.56;56.32;96221.27;108946;1274;148061;-83
2023/04/26 05:35:26;;;;;;;9.70;3.90;;;;;;;12.33;52.55;96219.96;109056;1274;22495;-83
2023/04/26 05:37:57;;;;;;;8.70;3.70;;;;;;;12.18;49.59;96209.77;109066;1269;24654;-83
2023/04/26 05:40:28;;;;;;;8.00;3.40;;;;;;;10.01;50.65;96221.77;109116;1273;22524;-83
2023/04/26 05:43:00;;;;;;;8.60;3.90;;;;;;;9.54;54.12;96227.57;109102;1273;22526;-83
2023/04/26 05:45:31;;;;;;;9.60;3.30;;;;;;;10.95;55.58;96219.69;109121;1273;22517;-82
2023/04/26 05:48:02;;;;;;;8.30;3.40;;;;;;;11.52;52.83;96223.90;109057;1274;24967;-83
2023/04/26 05:50:33;;;;;;;7.40;3.40;;;;;;;11.16;50.19;96220.70;109066;1272;22553;-83
2023/04/26 05:53:04;;;;;;;10.50;3.40;;;;;;;9.49;51.61;96232.84;109070;1274;22558;-83
2023/04/26 05:55:35;;;;;;;8.10;3.90;;;;;;;8.08;54.03;96233.12;109026;1274;23831;-83
2023/04/26 05:58:06;;;;;;;7.60;4.20;;;;;;;7.77;55.80;96239.31;109092;1273;22781;-83
2023/04/26 06:00:38;;;;;;;8.20;3.70;;;;;;;7.67;56.38;96237.43;109076;1250;22521;-83
2023/04/26 06:03:09;;;;;;;10.30;4.40;;;;;;;7.44;56.72;96236.64;109096;1273;22540;-83
2023/04/26 06:05:40;;;;;;;8.90;4.20;;;;;;;7.24;57.72;96235.31;109144;1266;22622;-83
2023/04/26 06:08:11;;;;;;;7.80;2.70;;;;;;;7.32;58.45;96240.94;109050;1273;22537;-83
2023/04/26 06:10:42;;;;;;;10.70;4.20;;;;;;;7.31;57.91;96240.41;109113;1273;23512;-83
2023/04/26 06:13:13;;;;;;;5.70;2.70;;;;;;;6.94;58.96;96241.65;109107;1266;22510;-83
2023/04/26 06:15:44;;;;;;;7.00;3.10;;;;;;;6.38;59.90;96243.53;109099;1273;22536;-83
2023/04/26 06:18:15;;;;;;;8.90;3.40;;;;;;;5.94;61.27;96253.11;109057;1266;24376;-83
2023/04/26 06:20:46;;;;;;;7.70;4.00;;;;;;;5.77;62.05;96258.70;109040;1251;23364;-83
2023/04/26 06:23:17;;;;;;;11.00;4.90;;;;;;;5.70;62.99;96256.20;109085;1267;23279;-83
2023/04/26 06:25:48;;;;;;;8.70;4.30;;;;;;;5.61;63.14;96262.56;109076;1267;22523;-83
2023/04/26 06:28:19;;;;;;;8.00;3.10;;;;;;;5.83;63.62;96258.16;109030;1274;22603;-83
2023/04/26 06:30:50;;;;;;;8.90;4.00;;;;;;;6.13;63.70;96256.98;109071;1271;23277;-82
2023/04/26 06:33:21;;;;;;;7.50;3.30;;;;;;;6.53;63.21;96257.35;109069;1268;22510;-82
2023/04/26 06:35:52;;;;;;;8.30;4.00;;;;;;;6.53;62.62;96254.10;109061;1274;22521;-83
2023/04/26 06:38:23;;;;;;;10.00;3.70;;;;;;;6.44;62.27;96252.07;109012;1271;22517;-83
2023/04/26 06:40:54;;;;;;;8.40;3.00;;;;;;;6.25;62.52;96258.23;109091;1274;22511;-83
2023/04/26 06:43:25;;;;;;;8.80;4.00;;;;;;;6.21;62.52;96256.39;109078;1274;23977;-83
2023/04/26 06:45:56;;;;;;;7.00;3.70;;;;;;;6.24;62.94;96260.97;109103;1274;22514;-83
2023/04/26 06:48:27;;;;;;;6.20;2.80;;;;;;;6.65;63.48;96256.85;109126;1273;23864;-83
2023/04/26 06:50:58;;;;;;;7.60;3.30;;;;;;;7.05;62.72;96256.99;109110;1267;22510;-83
2023/04/26 06:53:29;;;;;;;9.50;3.80;;;;;;;7.17;62.73;96260.94;109105;1273;24111;-83
2023/04/26 06:56:00;;;;;;;6.90;3.40;;;;;;;7.19;62.08;96259.09;109113;1266;22563;-83
2023/04/26 06:58:31;;;;;;;8.20;3.80;;;;;;;6.94;61.47;96260.14;109102;1267;27876;-83
2023/04/26 07:01:02;;;;;;;9.40;4.00;;;;;;;6.92;63.36;96262.95;109146;1273;22934;-83
2023/04/26 07:03:33;;;;;;;8.30;3.70;;;;;;;7.94;62.65;96259.04;109119;1273;23227;-83
2023/04/26 07:06:05;;;;;;;6.20;3.30;;;;;;;10.09;61.42;96255.73;109106;1273;22564;-83
2023/04/26 07:08:36;;;;;;;7.60;3.80;;;;;;;10.90;55.20;96249.54;109048;1273;26592;-83
2023/04/26 07:11:12;;;;;;;8.30;3.80;;;;;;;11.48;55.60;96243.98;109100;1274;22507;-83
2023/04/26 07:13:43;;;;;;;7.50;3.20;;;;;;;12.86;54.66;96248.34;109070;1251;23711;-83
2023/04/26 07:16:14;;;;;;;6.50;3.30;;;;;;;12.61;48.34;96246.36;109080;1274;25278;-84
2023/04/26 07:18:47;;;;;;;6.30;2.80;;;;;;;12.25;47.95;96234.66;109077;1268;22539;-84
2023/04/26 07:21:18;;;;;;;7.70;3.20;;;;;;;11.20;48.03;96241.63;109127;1273;22548;-83
2023/04/26 07:23:53;;;;;;;7.60;3.00;;;;;;;12.88;51.51;96246.65;109126;1268;22535;-83
2023/04/26 07:26:25;;;;;;;4.20;2.60;;;;;;;14.92;49.65;96243.29;109065;1273;23740;-83
2023/04/26 07:28:56;;;;;;;6.90;3.30;;;;;;;15.39;46.46;96238.13;109080;1253;25502;-83
2023/04/26 07:31:27;;;;;;;6.10;2.70;;;;;;;13.78;46.73;96254.34;109098;1274;22647;-84
2023/04/26 07:33:58;;;;;;;7.20;3.30;;;;;;;12.85;46.79;96250.73;109027;1268;22531;-83
2023/04/26 07:36:30;;;;;;;6.10;2.90;;;;;;;14.47;46.96;96254.13;109055;1275;24295;-84
2023/04/26 07:39:01;;;;;;;8.40;3.00;;;;;;;16.92;44.28;96245.50;109051;1274;22611;-84
2023/04/26 07:41:32;;;;;;;7.20;2.80;;;;;;;19.05;44.71;96246.74;109083;1274;22520;-84
2023/04/26 07:44:03;;;;;;;7.40;3.20;;;;;;;20.45;41.31;96240.48;109092;1274;22457;-84
2023/04/26 07:46:36;;;;;;;6.40;2.80;;;;;;;17.91;37.70;96251.73;109074;1267;25256;-84
2023/04/26 07:49:07;;;;;;;7.00;2.80;;;;;;;15.29;39.89;96251.11;109041;1274;22533;-84
2023/04/26 07:51:38;;;;;;;4.80;2.70;;;;;;;16.26;41.43;96260.45;109103;1274;22559;-84
2023/04/26 07:54:09;;;;;;;4.90;2.40;;;;;;;17.91;38.72;96257.55;109052;1274;22585;-84
2023/04/26 07:56:40;;;;;;;4.90;2.20;;;;;;;17.34;35.58;96249.66;109054;1268;22510;-84
2023/04/26 07:59:11;;;;;;;5.10;2.30;;;;;;;13.92;36.54;96263.71;109128;1269;22958;-83
2023/04/26 08:01:42;;;;;;;8.10;2.90;;;;;;;11.53;40.64;96268.39;109110;1273;24946;-83
2023/04/26 08:04:13;;;;;;;6.90;2.90;;;;;;;10.42;43.11;96268.94;109119;1273;22552;-84
2023/04/26 08:06:47;;;;;;;7.10;2.90;;;;;;;9.79;44.61;96282.87;109065;1268;23112;-83
2023/04/26 08:09:19;;;;;;;4.60;2.00;;;;;;;11.22;45.38;96272.91;109018;1274;22517;-84
2023/04/26 08:11:50;;;;;;;6.50;2.40;;;;;;;11.80;43.10;96262.14;109057;1274;22571;-84
2023/04/26 08:14:21;;;;;;;6.80;2.70;;;;;;;10.82;43.07;96277.69;109108;1251;22575;-83
2023/04/26 08:16:52;;;;;;;5.20;1.90;;;;;;;11.09;45.26;96279.13;109026;1275;23801;-84
2023/04/26 08:19:25;;;;;;;7.60;2.10;;;;;;;13.20;42.94;96266.55;109091;1251;22521;-84
2023/04/26 08:21:57;;;;;;;7.10;2.60;;;;;;;14.62;40.26;96277.55;109017;1274;25978;-84
2023/04/26 08:24:28;;;;;;;3.90;1.90;;;;;;;16.00;40.07;96269.77;109116;1268;23865;-84
2023/04/26 08:26:59;;;;;;;4.90;2.70;;;;;;;15.62;36.29;96262.42;109097;1274;22549;-85
2023/04/26 08:29:30;;;;;;;7.10;2.30;;;;;;;15.32;36.51;96262.48;109085;1268;24174;-84
2023/04/26 08:32:01;;;;;;;5.40;2.50;;;;;;;13.05;37.74;96275.90;109087;1274;22507;-84
2023/04/26 08:34:32;;;;;;;4.80;2.50;;;;;;;11.08;40.42;96284.76;109080;1274;22576;-84
2023/04/26 08:37:04;;;;;;;6.80;2.80;;;;;;;9.74;42.71;96296.66;109083;1274;23193;-82
2023/04/26 08:39:35;;;;;;;4.70;2.60;;;;;;;8.83;43.98;96294.77;109077;1274;22533;-84
2023/04/26 08:42:16;;;;;;;8.30;3.00;;;;;;;8.15;45.57;96293.34;109027;1274;22560;-84
2023/04/26 08:44:47;;;;;;;5.90;2.30;;;;;;;7.95;47.24;96306.13;109099;1268;25295;-84
2023/04/26 08:47:28;;;;;;;6.50;2.60;;;;;;;8.13;47.47;96301.27;109044;1274;24373;-84
2023/04/26 08:50:03;;;;;;;5.30;2.60;;;;;;;7.98;47.56;96299.73;109060;1271;22536;-84
2023/04/26 08:52:35;;;;;;;7.40;2.60;;;;;;;7.60;48.19;96298.88;109063;1267;25003;-84
2023/04/26 08:55:08;;;;;;;6.50;2.60;;;;;;;7.73;49.31;96302.20;109097;1274;25414;-84
2023/04/26 08:57:40;;;;;;;6.70;2.20;;;;;;;9.17;47.65;96302.31;109037;1267;22521;-84
2023/04/26 09:00:13;;;;;;;10.10;2.90;;;;;;;8.94;47.01;96291.89;109087;1274;22560;-84
2023/04/26 09:02:46;;;;;;;4.70;2.40;;;;;;;8.26;48.26;96292.88;109099;1271;22628;-84
2023/04/26 09:05:22;;;;;;;4.40;2.20;;;;;;;7.84;48.90;96294.71;109074;1256;22510;-83
2023/04/26 09:07:57;;;;;;;4.20;2.10;;;;;;;7.40;49.75;96292.98;109074;1267;22552;-84
2023/04/26 09:10:28;;;;;;;7.50;3.10;;;;;;;7.01;51.09;96297.89;109087;1274;22548;-84
2023/04/26 09:12:59;;;;;;;11.50;4.70;;;;;;;6.82;51.72;96302.03;109090;1274;22533;-84
2023/04/26 09:15:31;;;;;;;7.60;2.70;;;;;;;6.90;52.20;96298.56;109031;1268;22533;-84
2023/04/26 09:18:18;;;;;;;5.70;2.30;;;;;;;7.42;51.58;96299.52;109060;1274;22518;-84
2023/04/26 09:21:03;;;;;;;7.10;2.70;;;;;;;7.54;50.40;96290.33;109115;1274;23119;-84
2023/04/26 09:23:35;;;;;;;5.10;1.90;;;;;;;7.31;50.15;96298.69;109071;1274;22568;-84
2023/04/26 09:26:20;;;;;;;6.40;2.00;;;;;;;7.17;49.92;96294.10;109066;1274;22543;-84
2023/04/26 09:29:10;;;;;;;3.90;1.90;;;;;;;6.98;50.37;96294.73;109049;1274;24411;-84
2023/04/26 09:31:44;;;;;;;5.20;2.20;;;;;;;6.92;51.13;96299.05;109093;1274;25448;-84
2023/04/26 09:34:15;;;;;;;5.90;2.30;;;;;;;7.11;51.16;96297.63;109155;1274;23057;-84
2023/04/26 09:36:51;;;;;;;1.80;1.10;;;;;;;7.30;50.59;96296.36;109089;1274;25420;-84
2023/04/26 09:39:38;;;;;;;4.70;1.70;;;;;;;7.05;50.36;96297.58;109058;1268;22526;-85
2023/04/26 09:42:10;;;;;;;6.50;1.90;;;;;;;6.61;51.98;96302.56;109099;1274;23964;-84
2023/04/26 09:44:41;;;;;;;7.50;3.60;;;;;;;6.41;52.24;96305.98;109040;1274;22742;-84
2023/04/26 09:47:13;;;;;;;5.80;2.40;;;;;;;6.38;52.98;96298.41;109014;1274;22484;-84
2023/04/26 09:49:49;;;;;;;7.80;1.90;;;;;;;6.39;52.80;96301.56;109073;1273;22722;-84
2023/04/26 09:52:21;;;;;;;4.40;2.00;;;;;;;6.73;53.06;96297.33;109048;1275;22540;-84
2023/04/26 09:54:54;;;;;;;4.70;1.80;;;;;;;7.16;52.85;96294.09;109073;1274;22510;-84
2023/04/26 09:57:25;;;;;;;5.50;1.70;;;;;;;7.35;52.10;96287.40;109064;1263;22587;-84
2023/04/26 09:59:56;;;;;;;6.20;1.90;;;;;;;7.57;52.33;96295.23;109086;1274;22485;-84
2023/04/26 10:02:28;;;;;;;5.70;2.20;;;;;;;7.70;52.01;96294.89;109058;1271;25421;-84
2023/04/26 10:05:01;;;;;;;4.30;1.80;;;;;;;7.65;52.11;96300.13;109051;1269;22514;-84
2023/04/26 10:07:33;;;;;;;7.30;2.00;;;;;;;7.52;51.51;96308.80;109087;1273;25403;-84
2023/04/26 10:10:06;;;;;;;2.30;1.70;;;;;;;7.92;51.66;96306.72;109100;1273;24986;-84
2023/04/26 10:12:37;;;;;;;4.70;2.20;;;;;;;8.47;52.38;96303.63;109105;1273;23944;-84
2023/04/26 10:15:11;;;;;;;4.90;2.10;;;;;;;9.09;50.27;96295.27;109137;1270;22764;-84
2023/04/26 10:17:42;;;;;;;3.30;1.60;;;;;;;9.07;49.47;96289.27;109090;1271;23939;-84
2023/04/26 10:20:16;;;;;;;3.90;1.50;;;;;;;8.91;48.15;96283.35;109107;1273;22556;-84
2023/04/26 10:22:53;;;;;;;4.90;1.40;;;;;;;8.56;47.61;96275.64;109034;1272;25421;-84
2023/04/26 10:25:37;;;;;;;3.00;1.70;;;;;;;8.24;48.41;96283.69;109054;1274;23314;-84
2023/04/26 10:28:08;;;;;;;4.30;1.80;;;;;;;8.26;48.74;96284.85;109058;1275;22541;-84
2023/04/26 10:30:56;;;;;;;5.90;1.90;;;;;;;8.44;48.78;96286.10;109077;1275;22472;-84
2023/04/26 10:33:27;;;;;;;3.10;1.60;;;;;;;8.90;49.66;96295.62;109076;1274;23131;-84
2023/04/26 10:36:15;;;;;;;2.80;1.50;;;;;;;8.92;48.20;96289.05;109093;1274;23241;-84
2023/04/26 10:39:27;;;;;;;3.40;1.90;;;;;;;8.73;49.51;96306.45;109078;1274;22515;-85
2023/04/26 10:42:22;;;;;;;4.70;1.90;;;;;;;7.94;50.90;96327.20;109004;1274;22562;-84
2023/04/26 10:44:53;;;;;;;6.00;1.80;;;;;;;7.56;51.90;96327.05;109051;1274;22507;-84
2023/04/26 10:47:27;;;;;;;5.90;2.70;;;;;;;7.16;52.25;96338.13;109052;1274;22657;-84
2023/04/26 10:50:07;;;;;;;6.40;2.20;;;;;;;6.66;54.33;96342.45;109059;1274;22552;-84
2023/04/26 10:52:59;;;;;;;4.00;2.00;;;;;;;6.07;56.18;96342.13;109077;1267;22490;-85
2023/04/26 10:55:43;;;;;;;5.40;2.00;;;;;;;5.73;58.35;96336.21;109114;1271;22885;-84
2023/04/26 11:01:20;;;;;;;6.40;2.50;;;;;;;5.60;60.51;96338.14;105981;1301;545010;-85
2023/04/26 11:04:11;;;;;;;3.70;1.90;;;;;;;5.70;60.52;96337.41;108285;1284;23753;-85
2023/04/26 11:06:53;;;;;;;4.60;2.20;;;;;;;5.78;60.52;96336.20;108415;1270;22536;-85
2023/04/26 11:09:39;;;;;;;6.80;2.50;;;;;;;5.82;59.49;96344.53;108236;1281;22594;-85
2023/04/26 11:12:13;;;;;;;3.30;1.90;;;;;;;5.95;59.48;96346.78;108241;1285;22631;-85
2023/04/26 11:14:47;;;;;;;5.40;2.40;;;;;;;6.11;57.91;96342.46;108181;1283;154495;-85
2023/04/26 11:17:19;;;;;;;4.50;2.30;;;;;;;6.17;57.78;96350.01;108353;1281;22827;-85
2023/04/26 11:19:50;;;;;;;5.10;1.40;;;;;;;6.27;57.12;96351.48;108446;1275;23878;-85
2023/04/26 11:22:23;;;;;;;3.60;1.00;;;;;;;6.23;55.16;96341.52;108462;1282;22584;-85
2023/04/26 11:24:55;;;;;;;2.30;1.00;;;;;;;6.09;53.33;96348.71;109106;1273;23211;-84
2023/04/26 11:27:29;;;;;;;3.90;1.30;;;;;;;6.04;53.13;96353.57;109090;1273;22485;-87
2023/04/26 11:30:04;;;;;;;3.80;2.00;;;;;;;6.05;53.17;96354.84;109091;1273;22521;-84
2023/04/26 11:32:36;;;;;;;3.60;1.20;;;;;;;6.11;53.21;96356.52;109168;1272;22524;-85
2023/04/26 11:35:09;;;;;;;3.90;1.80;;;;;;;6.15;53.39;96359.58;109061;1273;22529;-85
2023/04/26 11:37:40;;;;;;;6.70;2.30;;;;;;;6.24;53.73;96362.48;109134;1267;22536;-85
2023/04/26 11:40:15;;;;;;;7.70;3.90;;;;;;;6.34;53.95;96358.73;109153;1273;22543;-85
2023/04/26 11:42:47;;;;;;;25.50;12.20;;;;;;;6.43;53.77;96357.45;109057;1267;22510;-85
2023/04/26 11:45:19;;;;;;;3.50;1.90;;;;;;;6.41;53.03;96357.80;109055;1270;22551;-84
2023/04/26 11:47:50;;;;;;;15.60;9.80;;;;;;;6.43;53.59;96362.23;109030;1273;23087;-85
2023/04/26 11:50:25;;;;;;;14.40;6.90;;;;;;;6.48;53.83;96364.90;109108;1267;23870;-84
2023/04/26 11:52:59;;;;;;;3.70;2.00;;;;;;;6.51;53.59;96366.60;109126;1267;24194;-84
2023/04/26 11:55:32;;;;;;;10.20;4.80;;;;;;;6.53;52.50;96360.91;109054;1273;23203;-85